Time;durP1;ratioP1;P1;durP2;ratioP2;P2;SDS_P1;SDS_P2;PMS_P1;PMS_P2;Temp;Humidity;BMP_temperature;BMP_pressure;BME280_temperature;BME280_humidity;BME280_pressure;Samples;Min_cycle;Max_cycle;Signal;HPM_P1;HPM_P2
2022/11/02 00:01:43;;;;;;;233.40;45.65;;;13.40;83.50;;;;;;5074398;28;20479;-16
2022/11/02 00:04:10;;;;;;;182.05;40.17;;;13.40;83.60;;;;;;5074474;28;20025;-16
2022/11/02 00:06:36;;;;;;;59.22;31.42;;;13.30;83.80;;;;;;5074390;28;20036;-15
2022/11/02 00:09:02;;;;;;;62.55;32.08;;;13.30;83.90;;;;;;5074852;28;20369;-15
2022/11/02 00:11:28;;;;;;;81.65;35.03;;;13.30;84.10;;;;;;5074168;28;20560;-15
2022/11/02 00:13:54;;;;;;;53.85;29.80;;;13.40;84.50;;;;;;5074113;28;20123;-16
2022/11/02 00:16:21;;;;;;;218.65;50.05;;;13.40;84.30;;;;;;5074051;28;20020;-16
2022/11/02 00:18:50;;;;;;;55.95;32.00;;;13.40;84.30;;;;;;5074153;28;20048;-14
2022/11/02 00:21:18;;;;;;;105.70;36.75;;;13.40;84.30;;;;;;5074913;28;20111;-17
2022/11/02 00:23:45;;;;;;;52.15;31.52;;;13.50;84.30;;;;;;5074086;28;20078;-16
2022/11/02 00:26:11;;;;;;;70.30;35.00;;;13.50;84.20;;;;;;5074174;28;20028;-16
2022/11/02 00:28:37;;;;;;;62.35;34.22;;;13.50;84.30;;;;;;5072507;28;20111;-17
2022/11/02 00:31:03;;;;;;;70.18;32.22;;;13.50;84.20;;;;;;5073334;28;20137;-16
2022/11/02 00:33:30;;;;;;;59.30;31.63;;;13.60;84.20;;;;;;5074217;28;20111;-17
2022/11/02 00:35:57;;;;;;;138.23;43.88;;;13.70;84.30;;;;;;5073716;28;20033;-15
2022/11/02 00:38:23;;;;;;;117.75;38.22;;;13.70;84.30;;;;;;5073539;28;20476;-16
2022/11/02 00:40:49;;;;;;;146.43;41.60;;;13.70;84.10;;;;;;5073420;28;20043;-16
2022/11/02 00:43:15;;;;;;;66.90;35.35;;;13.80;84.40;;;;;;5073599;28;20035;-16
2022/11/02 00:45:41;;;;;;;166.20;44.40;;;13.80;84.50;;;;;;5073543;28;20025;-16
2022/11/02 00:48:06;;;;;;;84.03;37.03;;;13.90;84.40;;;;;;5072921;28;20036;-15
2022/11/02 00:50:32;;;;;;;90.93;35.55;;;13.80;84.70;;;;;;5073286;28;20031;-17
2022/11/02 00:52:58;;;;;;;245.90;51.83;;;13.80;84.50;;;;;;5073599;28;20097;-16
2022/11/02 00:55:24;;;;;;;186.25;46.03;;;13.90;84.90;;;;;;5073683;28;20074;-16
2022/11/02 00:57:50;;;;;;;298.73;54.92;;;13.90;85.40;;;;;;5073672;28;20107;-17
2022/11/02 01:00:16;;;;;;;112.25;41.00;;;13.90;85.60;;;;;;5073319;28;20097;-15
2022/11/02 01:02:42;;;;;;;109.53;40.50;;;13.90;85.20;;;;;;5073306;28;20107;-15
2022/11/02 01:05:10;;;;;;;180.60;47.10;;;13.90;84.90;;;;;;5073148;28;20047;-15
2022/11/02 01:07:36;;;;;;;83.60;38.47;;;13.90;85.00;;;;;;5073563;28;20032;-16
2022/11/02 01:10:04;;;;;;;400.98;60.67;;;13.90;85.10;;;;;;5073332;28;20032;-15
2022/11/02 01:12:30;;;;;;;104.80;36.85;;;13.90;85.00;;;;;;5073425;28;20048;-16
2022/11/02 01:14:56;;;;;;;83.65;35.70;;;13.90;85.00;;;;;;5073277;28;20488;-15
2022/11/02 01:17:22;;;;;;;119.97;39.40;;;13.90;84.80;;;;;;5073357;28;20500;-14
2022/11/02 01:19:50;;;;;;;73.30;38.15;;;13.90;84.90;;;;;;5073440;28;20028;-17
2022/11/02 01:22:15;;;;;;;176.23;43.42;;;13.90;84.90;;;;;;5073119;28;20024;-15
2022/11/02 01:24:41;;;;;;;152.55;42.70;;;14.00;84.90;;;;;;5072945;28;20029;-17
2022/11/02 01:27:07;;;;;;;74.50;40.45;;;13.90;85.70;;;;;;5072915;28;20047;-16
2022/11/02 01:29:33;;;;;;;104.85;43.75;;;14.00;85.70;;;;;;5072895;28;20037;-17
2022/11/02 01:31:59;;;;;;;72.80;39.17;;;14.00;85.90;;;;;;5072969;28;20045;-15
2022/11/02 01:34:25;;;;;;;382.95;59.38;;;14.00;85.70;;;;;;5072966;28;20024;-15
2022/11/02 01:36:50;;;;;;;548.08;75.70;;;14.00;85.50;;;;;;5073050;28;20113;-15
2022/11/02 01:39:16;;;;;;;231.00;52.92;;;14.10;86.50;;;;;;5073354;28;20380;-15
2022/11/02 01:41:42;;;;;;;577.72;81.00;;;14.10;86.50;;;;;;5073184;28;20170;-15
2022/11/02 01:44:27;;;;;;;132.52;46.50;;;14.10;86.90;;;;;;5072892;28;20467;-14
2022/11/02 01:47:07;;;;;;;492.63;71.88;;;14.10;86.50;;;;;;5072727;28;20492;-15
2022/11/02 01:49:36;;;;;;;122.95;44.83;;;14.10;87.20;;;;;;5072713;28;20380;-15
2022/11/02 01:52:42;;;;;;;144.52;47.25;;;14.10;86.80;;;;;;5073649;28;20025;-16
2022/11/02 01:55:24;;;;;;;285.27;54.83;;;14.10;86.30;;;;;;5050429;28;20033;-15
2022/11/02 01:58:10;;;;;;;81.22;38.95;;;14.20;85.90;;;;;;5050661;28;20120;-15
2022/11/02 02:00:38;;;;;;;107.05;40.97;;;14.20;85.90;;;;;;5053411;28;20017;-17
2022/11/02 02:03:10;;;;;;;92.68;38.83;;;14.20;86.00;;;;;;5054974;28;20346;-15
2022/11/02 02:05:47;;;;;;;185.32;47.42;;;14.20;85.80;;;;;;5054532;28;20075;-16
2022/11/02 02:08:17;;;;;;;70.88;35.97;;;14.20;85.80;;;;;;5055094;28;20533;-15
2022/11/02 02:10:42;;;;;;;74.13;38.08;;;14.30;85.60;;;;;;5054301;28;20511;-17
2022/11/02 02:13:09;;;;;;;72.85;35.63;;;14.30;85.50;;;;;;5054302;28;20067;-17
2022/11/02 02:15:53;;;;;;;78.65;37.92;;;14.40;85.40;;;;;;5054560;28;20124;-17
2022/11/02 02:18:30;;;;;;;;;;;14.40;85.40;;;;;;5055170;28;20068;-15
2022/11/02 02:21:04;;;;;;;82.13;34.60;;;14.40;85.50;;;;;;5054085;28;19904;-15
2022/11/02 02:23:58;;;;;;;63.35;31.98;;;14.40;85.40;;;;;;5054016;28;20060;-15
2022/11/02 02:26:39;;;;;;;89.63;35.33;;;14.40;85.30;;;;;;5054651;28;20045;-16
2022/11/02 02:29:10;;;;;;;74.63;35.35;;;14.50;85.20;;;;;;5054134;28;20040;-15
2022/11/02 02:32:07;;;;;;;329.52;54.17;;;14.50;85.20;;;;;;5065829;28;20412;-15
2022/11/02 02:34:44;;;;;;;76.65;38.25;;;14.50;85.20;;;;;;5053895;28;20025;-17
2022/11/02 02:37:18;;;;;;;311.17;53.05;;;14.50;85.20;;;;;;5053793;28;20528;-16
2022/11/02 02:39:50;;;;;;;126.13;40.72;;;14.50;85.00;;;;;;5054271;28;20070;-16
2022/11/02 02:42:32;;;;;;;83.15;37.72;;;14.50;84.90;;;;;;5053971;28;20028;-17
2022/11/02 02:45:05;;;;;;;59.50;33.35;;;14.50;84.80;;;;;;5053716;28;20450;-16
2022/11/02 02:47:35;;;;;;;69.07;33.65;;;14.50;85.00;;;;;;5053863;28;20040;-15
2022/11/02 02:50:15;;;;;;;134.63;37.03;;;14.50;85.10;;;;;;5053595;28;20036;-15
2022/11/02 02:52:43;;;;;;;76.95;37.78;;;14.50;85.00;;;;;;5053802;28;20048;-15
2022/11/02 02:55:15;;;;;;;74.80;28.77;;;14.60;85.00;;;;;;5053463;28;20508;-18
2022/11/02 02:57:41;;;;;;;63.63;36.75;;;14.60;84.90;;;;;;5053693;28;20098;-15
2022/11/02 03:00:24;;;;;;;62.83;32.67;;;14.60;85.30;;;;;;5053827;28;20025;-16
2022/11/02 03:03:00;;;;;;;80.28;31.83;;;14.60;85.10;;;;;;5037018;28;20032;-16
2022/11/02 03:05:33;;;;;;;57.15;32.83;;;14.60;85.10;;;;;;5053691;28;20041;-17
2022/11/02 03:08:12;;;;;;;58.30;31.67;;;14.60;85.00;;;;;;5053405;28;20088;-16
2022/11/02 03:10:49;;;;;;;337.92;55.78;;;14.60;85.10;;;;;;5061794;28;20131;-15
2022/11/02 03:13:44;;;;;;;419.95;65.57;;;14.60;85.10;;;;;;5075023;28;20021;-17
2022/11/02 03:16:19;;;;;;;128.05;44.00;;;14.60;84.90;;;;;;5073398;28;20071;-16
2022/11/02 03:19:00;;;;;;;78.05;37.42;;;14.60;85.20;;;;;;5075566;28;20130;-17
2022/11/02 03:21:48;;;;;;;108.53;41.83;;;14.60;84.90;;;;;;5075267;28;20036;-16
2022/11/02 03:24:34;;;;;;;113.47;40.25;;;14.50;85.40;;;;;;5075056;28;20107;-16
2022/11/02 03:27:21;;;;;;;155.88;46.88;;;14.50;85.30;;;;;;5075275;28;20063;-16
2022/11/02 03:30:07;;;;;;;197.75;50.67;;;14.40;85.60;;;;;;5075383;28;20039;-15
2022/11/02 03:32:39;;;;;;;116.93;36.95;;;14.40;85.50;;;;;;5075608;28;20059;-17
2022/11/02 03:35:23;;;;;;;62.78;33.28;;;14.40;85.40;;;;;;5074734;28;20029;-15
2022/11/02 03:38:03;;;;;;;101.75;37.35;;;14.40;85.50;;;;;;5074088;28;20042;-15
2022/11/02 03:40:34;;;;;;;77.07;35.65;;;14.40;85.40;;;;;;5075124;28;20025;-16
2022/11/02 03:43:03;;;;;;;300.33;55.47;;;14.40;85.60;;;;;;5074598;28;20028;-15
2022/11/02 03:45:39;;;;;;;69.20;33.47;;;14.40;85.80;;;;;;5074648;28;20021;-16
2022/11/02 03:48:08;;;;;;;88.90;38.60;;;14.40;85.60;;;;;;5073453;28;20210;-16
2022/11/02 03:50:38;;;;;;;103.10;38.30;;;14.40;85.80;;;;;;5074909;28;20025;-15
2022/11/02 03:53:12;;;;;;;117.95;38.85;;;14.40;85.90;;;;;;5074400;28;20078;-16
2022/11/02 03:55:48;;;;;;;65.18;34.65;;;14.40;85.90;;;;;;5074500;28;20021;-16
2022/11/02 03:58:14;;;;;;;63.80;33.53;;;14.30;85.90;;;;;;5074500;28;20024;-15
2022/11/02 04:00:50;;;;;;;129.80;40.22;;;14.30;85.80;;;;;;5074612;28;20020;-15
2022/11/02 04:03:17;;;;;;;117.15;38.97;;;14.40;85.90;;;;;;5074691;28;20506;-15
2022/11/02 04:05:43;;;;;;;65.22;34.05;;;14.40;86.00;;;;;;5074374;28;20029;-15
2022/11/02 04:08:20;;;;;;;62.05;33.00;;;14.40;85.90;;;;;;5074369;28;20099;-16
2022/11/02 04:16:18;;;;;;;236.63;45.50;;;14.40;85.90;;;;;;5073529;28;20078;-15
2022/11/02 04:21:28;;;;;;;262.13;48.97;;;14.40;86.10;;;;;;5074134;28;20091;-15
2022/11/02 04:26:40;;;;;;;285.70;54.47;;;14.30;86.90;;;;;;5074349;28;20032;-15
2022/11/02 04:29:06;;;;;;;133.02;42.17;;;14.20;87.50;;;;;;5073972;28;20384;-16
2022/11/02 04:31:32;;;;;;;78.55;36.65;;;14.20;87.60;;;;;;5073952;28;20059;-16
2022/11/02 04:33:58;;;;;;;126.13;41.53;;;14.10;87.50;;;;;;5074091;28;20020;-15
2022/11/02 04:36:27;;;;;;;74.35;37.05;;;14.00;87.40;;;;;;5073716;28;20477;-15
2022/11/02 04:38:53;;;;;;;107.70;39.13;;;14.00;87.80;;;;;;5073455;28;20122;-15
2022/11/02 04:44:05;;;;;;;65.30;32.22;;;14.00;87.40;;;;;;5073990;28;20035;-16
2022/11/02 04:46:34;;;;;;;85.00;33.08;;;14.00;87.30;;;;;;5073553;28;20079;-15
2022/11/02 04:49:00;;;;;;;93.95;34.28;;;14.00;87.10;;;;;;5073326;28;20107;-16
2022/11/02 04:51:28;;;;;;;66.88;30.95;;;14.10;86.80;;;;;;5073766;28;20107;-15
2022/11/02 04:53:56;;;;;;;84.18;35.78;;;14.10;86.80;;;;;;5073588;28;20020;-16
2022/11/02 04:56:23;;;;;;;222.68;45.65;;;14.10;87.10;;;;;;5073408;28;20024;-14
2022/11/02 04:58:51;;;;;;;273.92;47.45;;;14.10;87.70;;;;;;5073151;28;20020;-16
2022/11/02 05:01:19;;;;;;;120.22;39.85;;;14.10;87.70;;;;;;5073684;28;20028;-16
2022/11/02 05:03:49;;;;;;;84.32;34.65;;;14.10;87.80;;;;;;5073290;28;20032;-15
2022/11/02 05:06:16;;;;;;;71.65;33.00;;;14.00;87.80;;;;;;5073306;28;20101;-15
2022/11/02 05:08:42;;;;;;;101.60;35.97;;;14.10;87.50;;;;;;5073201;28;20029;-15
2022/11/02 05:11:10;;;;;;;101.47;32.78;;;14.10;87.50;;;;;;5073105;28;20035;-15
2022/11/02 05:13:37;;;;;;;126.70;37.80;;;14.20;87.20;;;;;;5073162;28;20496;-15
2022/11/02 05:16:04;;;;;;;127.00;36.40;;;14.20;87.40;;;;;;5073351;28;20070;-16
2022/11/02 05:18:30;;;;;;;284.17;46.65;;;14.20;87.20;;;;;;5073164;28;20499;-16
2022/11/02 05:20:58;;;;;;;146.25;38.90;;;14.20;87.20;;;;;;5073016;28;20095;-16
2022/11/02 05:23:24;;;;;;;94.00;36.00;;;14.20;87.50;;;;;;5073096;28;20028;-15
2022/11/02 05:26:01;;;;;;;265.48;48.75;;;14.30;87.10;;;;;;5073042;28;20059;-16
2022/11/02 05:28:28;;;;;;;68.93;27.85;;;14.30;86.90;;;;;;5073119;28;20040;-16
2022/11/02 05:30:54;;;;;;;83.03;33.10;;;14.30;86.80;;;;;;5072758;28;20051;-15
2022/11/02 05:33:21;;;;;;;73.95;35.42;;;14.40;86.40;;;;;;5073022;28;20033;-17
2022/11/02 05:35:47;;;;;;;63.70;33.03;;;14.40;86.40;;;;;;5077799;28;20028;-14
2022/11/02 05:38:13;;;;;;;64.50;31.10;;;14.40;86.40;;;;;;5079899;28;20107;-14
2022/11/02 05:40:39;;;;;;;58.63;27.60;;;14.40;86.40;;;;;;5079836;28;20024;-15
2022/11/02 05:43:09;;;;;;;72.57;33.63;;;14.50;86.30;;;;;;5079981;28;20021;-15
2022/11/02 05:45:35;;;;;;;116.78;40.83;;;14.60;86.20;;;;;;5079885;28;20028;-15
2022/11/02 05:48:07;;;;;;;71.10;31.92;;;14.60;86.20;;;;;;5078236;28;20567;-16
2022/11/02 05:50:33;;;;;;;153.55;41.42;;;14.60;86.00;;;;;;5079786;28;20024;-15
2022/11/02 05:52:59;;;;;;;62.03;30.73;;;14.60;86.00;;;;;;5079515;28;20486;-15
2022/11/02 05:55:25;;;;;;;91.25;37.92;;;14.60;86.00;;;;;;5079520;28;20016;-16
2022/11/02 05:57:53;;;;;;;69.38;33.95;;;14.60;85.90;;;;;;5080567;28;20020;-15
2022/11/02 06:00:20;;;;;;;97.80;35.88;;;14.60;86.00;;;;;;5079845;28;20029;-15
2022/11/02 06:02:54;;;;;;;279.00;51.08;;;14.60;86.00;;;;;;5079397;28;20072;-15
2022/11/02 06:05:20;;;;;;;68.85;32.17;;;14.60;85.90;;;;;;5079786;28;20499;-16
2022/11/02 06:07:46;;;;;;;78.18;34.53;;;14.50;85.80;;;;;;5080167;28;20032;-16
2022/11/02 06:10:12;;;;;;;171.60;44.38;;;14.50;85.90;;;;;;5079499;28;20036;-17
2022/11/02 06:12:38;;;;;;;146.02;41.22;;;14.40;85.90;;;;;;5079662;28;20612;-16
2022/11/02 06:15:04;;;;;;;96.15;35.25;;;14.40;85.90;;;;;;5077943;28;20561;-15
2022/11/02 06:17:40;;;;;;;154.55;44.80;;;14.40;86.00;;;;;;5079274;28;20379;-16
2022/11/02 06:20:07;;;;;;;72.35;34.65;;;14.50;86.10;;;;;;5079541;28;20040;-15
2022/11/02 06:22:41;;;;;;;69.57;33.00;;;14.50;86.00;;;;;;5079235;28;20113;-17
2022/11/02 06:25:07;;;;;;;71.00;31.48;;;14.50;86.20;;;;;;5079280;28;20020;-17
2022/11/02 06:27:34;;;;;;;169.48;48.45;;;14.50;86.30;;;;;;5079453;28;20060;-15
2022/11/02 06:30:00;;;;;;;178.07;45.88;;;14.50;86.20;;;;;;5079270;28;20035;-15
2022/11/02 06:32:26;;;;;;;123.07;42.63;;;14.50;86.00;;;;;;5078955;28;20133;-16
2022/11/02 06:34:53;;;;;;;171.98;47.33;;;14.50;86.10;;;;;;5078866;28;20476;-17
2022/11/02 06:37:19;;;;;;;199.30;49.58;;;14.50;86.10;;;;;;5079715;28;20020;-15
2022/11/02 06:39:44;;;;;;;110.82;39.53;;;14.50;86.10;;;;;;5079002;28;20028;-16
2022/11/02 06:42:11;;;;;;;147.07;42.75;;;14.50;86.20;;;;;;5079049;28;20038;-16
2022/11/02 06:44:37;;;;;;;171.00;48.45;;;14.50;86.20;;;;;;5079189;28;20024;-16
2022/11/02 06:47:02;;;;;;;115.05;39.83;;;14.40;86.20;;;;;;5075601;28;20043;-16
2022/11/02 06:49:28;;;;;;;123.40;43.90;;;14.40;86.30;;;;;;5076067;28;20021;-15
2022/11/02 06:51:54;;;;;;;121.55;42.40;;;14.40;86.40;;;;;;5075785;28;20127;-17
2022/11/02 06:54:20;;;;;;;90.82;36.80;;;14.40;86.40;;;;;;5076208;28;20052;-16
2022/11/02 06:56:46;;;;;;;97.38;37.55;;;14.40;86.50;;;;;;5075646;28;20111;-16
2022/11/02 06:59:12;;;;;;;88.63;36.72;;;14.40;86.60;;;;;;5074309;28;20112;-17
2022/11/02 07:01:38;;;;;;;155.50;42.53;;;14.50;86.60;;;;;;5075594;28;20430;-15
2022/11/02 07:04:04;;;;;;;125.95;45.30;;;14.50;86.70;;;;;;5074381;28;20021;-15
2022/11/02 07:06:30;;;;;;;80.60;34.20;;;14.60;86.70;;;;;;5074288;28;20119;-15
2022/11/02 07:08:56;;;;;;;125.32;47.40;;;14.60;86.70;;;;;;5073850;28;20032;-16
2022/11/02 07:11:22;;;;;;;94.10;38.22;;;14.70;86.60;;;;;;5075678;28;20028;-16
2022/11/02 07:13:48;;;;;;;140.68;48.58;;;14.70;86.50;;;;;;5075327;28;20029;-17
2022/11/02 07:16:14;;;;;;;105.68;41.53;;;14.80;86.50;;;;;;5075631;28;20031;-16
2022/11/02 07:18:40;;;;;;;99.18;42.58;;;14.80;86.40;;;;;;5075873;28;20047;-17
2022/11/02 07:21:09;;;;;;;107.15;44.15;;;14.80;86.40;;;;;;5075396;28;20059;-15
2022/11/02 07:23:35;;;;;;;109.18;44.10;;;14.80;86.30;;;;;;5075477;28;20028;-16
2022/11/02 07:26:02;;;;;;;105.18;44.22;;;14.80;86.30;;;;;;5075067;28;20079;-15
2022/11/02 07:28:28;;;;;;;96.90;41.45;;;14.90;86.30;;;;;;5075312;28;20025;-15
2022/11/02 07:30:54;;;;;;;91.13;39.50;;;14.90;86.20;;;;;;5074753;28;20055;-15
2022/11/02 07:33:21;;;;;;;89.70;39.28;;;14.90;86.20;;;;;;5073777;28;20025;-16
2022/11/02 07:35:47;;;;;;;111.10;53.05;;;15.00;86.20;;;;;;5075266;28;20029;-15
2022/11/02 07:38:13;;;;;;;104.78;50.25;;;15.00;86.30;;;;;;5075522;28;20552;-17
2022/11/02 07:40:39;;;;;;;80.43;39.08;;;15.00;86.30;;;;;;5074846;28;20031;-16
2022/11/02 07:43:06;;;;;;;87.28;41.25;;;15.00;86.10;;;;;;5074601;28;20025;-16
2022/11/02 07:45:32;;;;;;;89.45;39.40;;;15.00;86.10;;;;;;5075169;28;20468;-16
2022/11/02 07:47:58;;;;;;;96.85;44.08;;;15.00;86.10;;;;;;5075011;28;20060;-16
2022/11/02 07:50:25;;;;;;;96.80;42.85;;;15.10;86.10;;;;;;5074566;28;20040;-15
2022/11/02 07:52:54;;;;;;;96.88;45.05;;;15.10;86.00;;;;;;5074418;28;20485;-15
2022/11/02 07:55:22;;;;;;;109.22;49.60;;;15.20;86.00;;;;;;5074812;28;20435;-15
2022/11/02 07:57:56;;;;;;;89.18;41.38;;;15.20;86.00;;;;;;5074283;28;20050;-15
2022/11/02 08:00:24;;;;;;;112.95;48.80;;;15.20;86.00;;;;;;5074775;28;20094;-15
2022/11/02 08:02:57;;;;;;;114.93;48.72;;;15.30;86.60;;;;;;5074172;28;20035;-16
2022/11/02 08:05:24;;;;;;;;;;;15.30;86.40;;;;;;5074860;28;20025;-15
2022/11/02 08:08:01;;;;;;;91.50;41.95;;;15.40;86.60;;;;;;5074724;28;19911;-15
2022/11/02 08:10:30;;;;;;;86.35;38.25;;;15.40;86.60;;;;;;5074176;28;20025;-14
2022/11/02 08:12:56;;;;;;;104.32;44.00;;;15.40;86.40;;;;;;5074347;28;20048;-15
2022/11/02 08:15:23;;;;;;;89.72;42.05;;;15.50;86.30;;;;;;5074101;28;20025;-15
2022/11/02 08:18:23;;;;;;;88.25;43.13;;;15.50;85.60;;;;;;5074094;28;20033;-15
2022/11/02 08:20:49;;;;;;;73.90;35.25;;;15.50;85.30;;;;;;5035298;28;20041;-15
2022/11/02 08:23:17;;;;;;;82.68;38.05;;;15.40;85.50;;;;;;5052655;28;20469;-17
2022/11/02 08:25:45;;;;;;;79.15;36.00;;;15.50;85.80;;;;;;5052018;28;20028;-16
2022/11/02 08:28:14;;;;;;;68.78;33.22;;;15.60;85.40;;;;;;5051842;28;20040;-16
2022/11/02 08:30:41;;;;;;;75.50;36.92;;;15.70;85.40;;;;;;5051760;28;20040;-15
2022/11/02 08:33:12;;;;;;;75.20;37.45;;;15.80;85.30;;;;;;5051617;28;20032;-15
2022/11/02 08:35:39;;;;;;;67.88;35.08;;;16.00;85.30;;;;;;5052370;28;20056;-16
2022/11/02 08:38:05;;;;;;;61.63;32.10;;;16.20;85.50;;;;;;5051903;28;20440;-16
2022/11/02 08:40:32;;;;;;;64.53;31.45;;;16.40;84.70;;;;;;5051478;28;20029;-16
2022/11/02 08:43:00;;;;;;;60.22;30.35;;;16.70;84.30;;;;;;5034835;28;20037;-16
2022/11/02 08:45:27;;;;;;;47.67;24.92;;;16.90;83.70;;;;;;5051596;28;20041;-16
2022/11/02 08:47:53;;;;;;;48.85;25.40;;;17.00;82.90;;;;;;5051681;28;20504;-17
2022/11/02 08:50:19;;;;;;;52.78;26.63;;;17.20;82.60;;;;;;5051533;28;20520;-16
2022/11/02 08:52:45;;;;;;;46.10;24.70;;;17.50;82.70;;;;;;5052290;28;20037;-15
2022/11/02 08:55:11;;;;;;;46.83;25.08;;;17.80;82.10;;;;;;5051676;28;20051;-17
2022/11/02 08:57:47;;;;;;;53.47;28.15;;;18.00;81.10;;;;;;5073442;28;20074;-14
2022/11/02 09:00:14;;;;;;;51.42;26.70;;;18.20;80.70;;;;;;5073334;28;20050;-16
2022/11/02 09:02:40;;;;;;;48.08;26.48;;;18.40;80.60;;;;;;5073374;28;20016;-15
2022/11/02 09:05:07;;;;;;;44.03;23.30;;;18.60;80.20;;;;;;5073159;28;20066;-16
2022/11/02 09:07:33;;;;;;;49.05;26.35;;;18.80;80.10;;;;;;5073617;28;20036;-15
2022/11/02 09:09:59;;;;;;;50.63;27.08;;;19.00;79.20;;;;;;5072425;28;20469;-17
2022/11/02 09:12:25;;;;;;;46.47;24.38;;;19.10;78.40;;;;;;5073199;28;20119;-15
2022/11/02 09:14:51;;;;;;;43.50;23.58;;;19.10;77.90;;;;;;5073607;28;20063;-15
2022/11/02 09:17:17;;;;;;;36.20;21.27;;;19.20;78.10;;;;;;5073164;28;20056;-16
2022/11/02 09:19:43;;;;;;;42.80;24.15;;;19.40;78.10;;;;;;5073612;28;20016;-15
2022/11/02 09:22:09;;;;;;;49.28;27.08;;;19.60;77.60;;;;;;5071856;28;20028;-15
2022/11/02 09:24:35;;;;;;;45.70;23.52;;;19.80;76.00;;;;;;5073465;28;20528;-15
2022/11/02 09:27:01;;;;;;;38.95;21.55;;;20.00;76.00;;;;;;5073124;28;20468;-15
2022/11/02 09:29:27;;;;;;;41.33;21.77;;;20.30;75.90;;;;;;5073595;28;20469;-15
2022/11/02 09:31:52;;;;;;;41.10;21.83;;;20.50;75.20;;;;;;5072813;28;20500;-15
2022/11/02 09:34:19;;;;;;;41.58;22.45;;;20.80;73.80;;;;;;5073850;28;20039;-15
2022/11/02 09:36:44;;;;;;;48.70;26.52;;;21.10;73.40;;;;;;5073289;28;20031;-15
2022/11/02 09:39:11;;;;;;;40.33;23.00;;;21.30;72.50;;;;;;5073117;28;20029;-15
2022/11/02 09:42:03;;;;;;;35.30;21.92;;;21.40;72.10;;;;;;5072991;28;20028;-16
2022/11/02 09:44:49;;;;;;;51.15;28.05;;;21.40;72.10;;;;;;5072856;28;20511;-16
2022/11/02 09:47:19;;;;;;;43.90;24.15;;;21.40;69.80;;;;;;5072985;28;20020;-15
2022/11/02 09:49:46;;;;;;;41.33;24.30;;;21.30;71.20;;;;;;5073075;28;20437;-16
2022/11/02 09:52:36;;;;;;;48.47;29.08;;;21.20;71.60;;;;;;5073031;28;20028;-15
2022/11/02 09:55:16;;;;;;;44.33;25.77;;;21.30;69.60;;;;;;5072938;28;20070;-15
2022/11/02 09:57:48;;;;;;;45.33;24.20;;;21.30;70.80;;;;;;5073171;28;20033;-15
2022/11/02 10:00:17;;;;;;;50.35;27.83;;;21.30;71.40;;;;;;5072990;28;20071;-15
2022/11/02 10:03:24;;;;;;;50.60;27.55;;;21.40;71.30;;;;;;5071704;28;20162;-15
2022/11/02 10:06:15;;;;;;;51.92;28.50;;;21.50;71.00;;;;;;5073103;28;20021;-15
2022/11/02 10:08:53;;;;;;;45.80;25.50;;;21.70;70.80;;;;;;5072702;28;20495;-15
2022/11/02 10:11:22;;;;;;;43.25;24.80;;;22.00;70.40;;;;;;5072686;28;20096;-17
2022/11/02 10:13:56;;;;;;;52.25;30.20;;;22.40;69.20;;;;;;5071392;28;20032;-16
2022/11/02 10:17:04;;;;;;;64.70;34.13;;;22.50;67.00;;;;;;5071368;28;20025;-15
2022/11/02 10:19:34;;;;;;;46.42;26.10;;;22.80;66.40;;;;;;5061259;28;20025;-14
2022/11/02 10:22:00;;;;;;;49.78;27.42;;;22.50;66.70;;;;;;5075143;28;20028;-15
2022/11/02 10:24:43;;;;;;;61.53;33.35;;;22.40;68.00;;;;;;5076416;28;20028;-15
2022/11/02 10:27:25;;;;;;;60.17;33.97;;;22.40;67.50;;;;;;5076218;28;20103;-14
2022/11/02 10:30:06;;;;;;;53.45;29.55;;;22.20;67.90;;;;;;5076520;28;20078;-15
2022/11/02 10:32:37;;;;;;;57.03;31.35;;;22.00;68.40;;;;;;5076633;28;20068;-15
2022/11/02 10:35:15;;;;;;;44.13;25.27;;;21.90;68.50;;;;;;5076537;28;20024;-15
2022/11/02 10:37:50;;;;;;;40.55;23.92;;;22.00;68.60;;;;;;5076055;28;20028;-14
2022/11/02 10:40:34;;;;;;;54.83;30.60;;;22.30;68.30;;;;;;5076177;28;20039;-15
2022/11/02 10:43:08;;;;;;;57.10;29.13;;;22.80;65.60;;;;;;5075827;28;20047;-16
2022/11/02 10:45:44;;;;;;;57.58;31.98;;;23.20;64.60;;;;;;5076260;28;20025;-14
2022/11/02 10:48:33;;;;;;;53.40;29.38;;;23.60;62.00;;;;;;5075857;28;20507;-15
2022/11/02 10:51:11;;;;;;;47.17;26.65;;;23.80;62.00;;;;;;5075614;28;20028;-14
2022/11/02 10:53:56;;;;;;;46.72;26.48;;;23.80;62.30;;;;;;5075790;28;20376;-15
2022/11/02 10:56:31;;;;;;;42.60;25.48;;;23.90;61.00;;;;;;5076022;28;20039;-15
2022/11/02 10:59:09;;;;;;;47.30;26.52;;;23.80;61.20;;;;;;5075788;28;20020;-14
2022/11/02 11:01:35;;;;;;;46.80;26.00;;;23.70;61.70;;;;;;5076106;28;20024;-14
2022/11/02 11:04:03;;;;;;;54.47;30.08;;;23.70;61.90;;;;;;5075764;28;20016;-14
2022/11/02 11:06:38;;;;;;;52.25;29.42;;;23.80;60.30;;;;;;5075497;28;20117;-14
2022/11/02 11:09:17;;;;;;;51.25;29.13;;;23.80;60.80;;;;;;5075815;28;20036;-14
2022/11/02 11:12:05;;;;;;;51.92;28.85;;;23.60;60.80;;;;;;5075494;28;20040;-14
2022/11/02 11:14:48;;;;;;;50.88;29.00;;;23.60;60.60;;;;;;5075718;28;20017;-14
2022/11/02 11:17:17;;;;;;;55.67;29.67;;;23.60;60.30;;;;;;5075380;28;20035;-14
2022/11/02 11:19:50;;;;;;;55.03;30.35;;;23.40;60.70;;;;;;5075635;28;20040;-17
2022/11/02 11:22:38;;;;;;;56.23;31.77;;;23.30;60.70;;;;;;5075322;28;20032;-15
2022/11/02 11:25:09;;;;;;;54.92;29.98;;;23.20;61.10;;;;;;5073570;28;20479;-15
2022/11/02 11:27:54;;;;;;;50.85;28.75;;;23.20;60.80;;;;;;5075723;28;20021;-15
2022/11/02 11:30:26;;;;;;;52.63;29.65;;;23.30;61.30;;;;;;5075025;28;20040;-15
2022/11/02 11:32:54;;;;;;;56.75;31.15;;;23.40;60.50;;;;;;5074237;28;20115;-15
2022/11/02 11:35:21;;;;;;;57.42;32.10;;;23.60;60.40;;;;;;5075536;28;20021;-15
2022/11/02 11:37:53;;;;;;;60.47;33.85;;;23.80;60.40;;;;;;5074968;28;20067;-14
2022/11/02 11:40:21;;;;;;;47.55;26.80;;;23.80;60.10;;;;;;5074927;28;20111;-15
2022/11/02 11:42:53;;;;;;;48.38;26.50;;;23.70;60.60;;;;;;5073440;28;20038;-17
2022/11/02 11:45:32;;;;;;;48.47;27.20;;;23.70;60.80;;;;;;5075404;28;20360;-14
2022/11/02 11:48:16;;;;;;;60.03;32.58;;;23.70;60.60;;;;;;5075447;28;20025;-14
2022/11/02 11:50:47;;;;;;;61.38;33.50;;;23.70;60.60;;;;;;5075115;28;20059;-17
2022/11/02 11:53:23;;;;;;;53.70;31.42;;;23.60;61.00;;;;;;5074671;28;20066;-14
2022/11/02 11:55:58;;;;;;;58.33;34.67;;;23.60;61.00;;;;;;5075183;28;20017;-14
2022/11/02 11:58:27;;;;;;;46.95;26.98;;;23.60;61.00;;;;;;5074818;28;20021;-14
2022/11/02 12:01:13;;;;;;;51.97;28.13;;;23.60;61.20;;;;;;5074927;28;20025;-14
2022/11/02 12:03:54;;;;;;;51.33;27.23;;;23.50;60.50;;;;;;5075304;28;20074;-14
2022/11/02 12:06:53;;;;;;;42.88;25.40;;;23.40;61.40;;;;;;5075071;28;20492;-15
2022/11/02 12:09:38;;;;;;;48.40;27.63;;;23.40;61.40;;;;;;5074796;28;20035;-14
2022/11/02 12:12:30;;;;;;;54.72;30.70;;;23.30;61.60;;;;;;5075174;28;20027;-16
2022/11/02 12:15:01;;;;;;;41.35;24.23;;;23.20;61.80;;;;;;5074262;28;20082;-15
2022/11/02 12:17:52;;;;;;;49.60;29.88;;;23.10;62.40;;;;;;5074112;28;20575;-15
2022/11/02 12:20:35;;;;;;;44.35;25.38;;;22.90;61.50;;;;;;5063981;28;20384;-15
2022/11/02 12:23:22;;;;;;;50.35;27.85;;;22.90;62.20;;;;;;5074042;28;20020;-15
2022/11/02 12:25:55;;;;;;;36.97;22.77;;;22.80;62.30;;;;;;5074258;28;20025;-15
2022/11/02 12:29:15;;;;;;;37.20;22.75;;;22.90;62.90;;;;;;5072742;28;20029;-15
2022/11/02 12:31:44;;;;;;;44.10;25.55;;;22.90;62.80;;;;;;5051821;28;20049;-13
2022/11/02 12:35:07;;;;;;;48.33;27.13;;;23.00;62.10;;;;;;5072505;28;20036;-16
2022/11/02 12:38:06;;;;;;;41.67;23.92;;;23.30;61.60;;;;;;5051815;28;20057;-15
2022/11/02 12:41:03;;;;;;;53.97;29.83;;;23.40;61.20;;;;;;5051688;28;20029;-15
2022/11/02 12:43:41;;;;;;;40.00;23.80;;;23.40;60.30;;;;;;5051711;28;20034;-15
2022/11/02 12:46:25;;;;;;;44.08;24.85;;;23.40;60.70;;;;;;5050836;28;20021;-16
2022/11/02 12:49:23;;;;;;;50.53;28.73;;;23.40;60.90;;;;;;5051392;28;20116;-16
2022/11/02 12:51:56;;;;;;;47.00;27.10;;;23.40;60.20;;;;;;5051584;28;20033;-14
2022/11/02 12:54:36;;;;;;;50.85;29.40;;;23.30;60.50;;;;;;5051415;28;20053;-14
2022/11/02 12:57:02;;;;;;;59.38;33.08;;;23.30;60.70;;;;;;5051325;28;20025;-15
2022/11/02 12:59:32;;;;;;;59.85;33.38;;;23.00;61.00;;;;;;5051358;28;20021;-17
2022/11/02 13:02:22;;;;;;;56.95;33.83;;;22.80;61.60;;;;;;5051377;28;20053;-14
2022/11/02 13:05:13;;;;;;;55.80;31.77;;;22.40;62.10;;;;;;5051522;28;20025;-16